createdAt,value
2018-03-31T00:00:25.487Z,981.94
2018-03-31T00:01:25.507Z,981.99
2018-03-31T00:02:25.463Z,981.96
2018-03-31T00:03:25.466Z,982.02
2018-03-31T00:04:25.464Z,982.04
2018-03-31T00:05:25.424Z,982.07
2018-03-31T00:06:25.449Z,982.06
2018-03-31T00:07:25.403Z,982.07
2018-03-31T00:08:25.400Z,982.10
2018-03-31T00:09:25.381Z,982.12
2018-03-31T00:10:25.360Z,982.13
2018-03-31T00:11:25.347Z,982.17
2018-03-31T00:12:25.334Z,982.14
2018-03-31T00:13:25.322Z,982.15
2018-03-31T00:14:25.321Z,982.18
2018-03-31T00:15:25.328Z,982.23
2018-03-31T00:16:25.298Z,982.17
2018-03-31T00:17:25.271Z,982.19
2018-03-31T00:18:25.262Z,982.21
2018-03-31T00:19:25.248Z,982.24
2018-03-31T00:20:25.242Z,982.19
2018-03-31T00:21:25.252Z,982.26
2018-03-31T00:22:25.208Z,982.26
2018-03-31T00:23:25.192Z,982.29
2018-03-31T00:24:25.185Z,982.26
2018-03-31T00:25:25.173Z,982.24
2018-03-31T00:26:25.154Z,982.25
2018-03-31T00:27:25.141Z,982.23
2018-03-31T00:28:25.128Z,982.23
2018-03-31T00:29:25.118Z,982.22
2018-03-31T00:30:25.103Z,982.21
2018-03-31T00:31:25.154Z,982.19
2018-03-31T00:32:25.108Z,982.19
2018-03-31T00:33:25.083Z,982.17
2018-03-31T00:34:25.066Z,982.22
2018-03-31T00:35:25.075Z,982.21
2018-03-31T00:36:25.025Z,982.20
2018-03-31T00:37:25.030Z,982.19
2018-03-31T00:38:25.045Z,982.20
2018-03-31T00:39:24.999Z,982.20
2018-03-31T00:40:24.974Z,982.19
2018-03-31T00:41:24.985Z,982.23
2018-03-31T00:42:24.948Z,982.25
2018-03-31T00:43:24.935Z,982.28
2018-03-31T00:44:24.922Z,982.25
2018-03-31T00:45:24.909Z,982.26
2018-03-31T00:46:24.899Z,982.24
2018-03-31T00:47:24.882Z,982.22
2018-03-31T00:48:24.895Z,982.26
2018-03-31T00:49:24.864Z,982.24
2018-03-31T00:50:24.871Z,982.23
2018-03-31T00:51:24.830Z,982.23
2018-03-31T00:52:24.818Z,982.23
2018-03-31T00:53:24.804Z,982.22
2018-03-31T00:54:24.813Z,982.23
2018-03-31T00:55:24.780Z,982.23
2018-03-31T00:56:24.786Z,982.25
2018-03-31T00:57:24.753Z,982.20
2018-03-31T00:58:24.739Z,982.21
2018-03-31T00:59:24.727Z,982.21
2018-03-31T01:00:24.713Z,982.17
2018-03-31T01:01:24.700Z,982.19
2018-03-31T01:02:24.688Z,982.15
2018-03-31T01:03:24.673Z,982.12
2018-03-31T01:04:24.666Z,982.20
2018-03-31T01:05:24.648Z,982.16
2018-03-31T01:06:24.660Z,982.16
2018-03-31T01:07:24.631Z,982.15
2018-03-31T01:08:24.655Z,982.17
2018-03-31T01:09:24.596Z,982.17
2018-03-31T01:10:24.582Z,982.15
2018-03-31T01:11:24.607Z,982.11
2018-03-31T01:12:24.556Z,982.17
2018-03-31T01:13:24.544Z,982.11
2018-03-31T01:14:24.576Z,982.13
2018-03-31T01:15:24.516Z,982.11
2018-03-31T01:16:24.505Z,982.13
2018-03-31T01:17:24.496Z,982.11
2018-03-31T01:18:24.477Z,982.17
2018-03-31T01:19:24.464Z,982.18
2018-03-31T01:20:24.450Z,982.19
2018-03-31T01:21:24.437Z,982.18
2018-03-31T01:22:24.424Z,982.17
2018-03-31T01:23:24.448Z,982.17
2018-03-31T01:24:24.414Z,982.24
2018-03-31T01:25:24.385Z,982.22
2018-03-31T01:26:24.381Z,982.26
2018-03-31T01:27:24.360Z,982.25
2018-03-31T01:28:24.344Z,982.22
2018-03-31T01:29:24.358Z,982.24
2018-03-31T01:30:24.331Z,982.29
2018-03-31T01:31:24.305Z,982.27
2018-03-31T01:32:24.298Z,982.26
2018-03-31T01:33:24.279Z,982.25
2018-03-31T01:34:24.266Z,982.26
2018-03-31T01:35:24.251Z,982.26
2018-03-31T01:36:24.238Z,982.26
2018-03-31T01:37:24.225Z,982.26
2018-03-31T01:38:24.212Z,982.28
2018-03-31T01:39:24.198Z,982.28
2018-03-31T01:40:24.184Z,982.24
2018-03-31T01:41:24.195Z,982.24
2018-03-31T01:42:24.163Z,982.26
2018-03-31T01:43:24.361Z,982.28
2018-03-31T01:44:24.130Z,982.30
2018-03-31T01:45:24.117Z,982.30
2018-03-31T01:46:24.124Z,982.26
2018-03-31T01:47:24.119Z,982.26
2018-03-31T01:48:24.076Z,982.25
2018-03-31T01:49:24.104Z,982.26
2018-03-31T01:50:24.051Z,982.26
2018-03-31T01:51:24.043Z,982.21
2018-03-31T01:52:24.034Z,982.24
2018-03-31T01:53:24.010Z,982.23
2018-03-31T01:54:23.995Z,982.23
2018-03-31T01:55:23.981Z,982.24
2018-03-31T01:56:23.968Z,982.23
2018-03-31T01:57:23.955Z,982.17
2018-03-31T01:58:23.942Z,982.17
2018-03-31T01:59:23.950Z,982.20
2018-03-31T02:00:23.915Z,982.16
2018-03-31T02:01:23.917Z,982.19
2018-03-31T02:02:23.887Z,982.19
2018-03-31T02:03:23.873Z,982.20
2018-03-31T02:04:23.865Z,982.16
2018-03-31T02:05:23.857Z,982.13
2018-03-31T02:06:24.057Z,982.18
2018-03-31T02:07:23.823Z,982.16
2018-03-31T02:08:23.812Z,982.15
2018-03-31T02:09:23.813Z,982.19
2018-03-31T02:10:23.779Z,982.16
2018-03-31T02:11:23.764Z,982.18
2018-03-31T02:12:23.752Z,982.16
2018-03-31T02:13:23.738Z,982.16
2018-03-31T02:14:23.725Z,982.20
2018-03-31T02:15:23.712Z,982.17
2018-03-31T02:16:23.716Z,982.14
2018-03-31T02:17:23.691Z,982.15
2018-03-31T02:18:23.699Z,982.21
2018-03-31T02:19:23.658Z,982.18
2018-03-31T02:20:23.644Z,982.21
2018-03-31T02:21:23.630Z,982.17
2018-03-31T02:22:23.618Z,982.19
2018-03-31T02:23:23.605Z,982.17
2018-03-31T02:24:23.613Z,982.17
2018-03-31T02:25:23.576Z,982.18
2018-03-31T02:26:23.563Z,982.18
2018-03-31T02:27:23.549Z,982.17
2018-03-31T02:28:23.536Z,982.16
2018-03-31T02:29:23.522Z,982.17
2018-03-31T02:30:23.509Z,982.16
2018-03-31T02:31:23.495Z,982.14
2018-03-31T02:32:23.482Z,982.18
2018-03-31T02:33:23.471Z,982.16
2018-03-31T02:34:23.469Z,982.16
2018-03-31T02:35:23.465Z,982.18
2018-03-31T02:36:23.451Z,982.14
2018-03-31T02:37:23.416Z,982.09
2018-03-31T02:38:23.436Z,982.13
2018-03-31T02:39:23.386Z,982.15
2018-03-31T02:40:23.377Z,982.15
2018-03-31T02:42:23.365Z,982.14
2018-03-31T02:43:23.332Z,982.14
2018-03-31T02:44:23.349Z,982.10
2018-03-31T02:45:23.307Z,982.10
2018-03-31T02:46:23.300Z,982.07
2018-03-31T02:47:23.280Z,982.08
2018-03-31T02:48:23.272Z,982.07
2018-03-31T02:49:23.254Z,982.07
2018-03-31T02:50:23.240Z,982.08
2018-03-31T02:51:23.225Z,982.07
2018-03-31T02:52:23.224Z,982.07
2018-03-31T02:53:23.301Z,982.08
2018-03-31T02:54:23.192Z,982.08
2018-03-31T02:55:23.171Z,982.08
2018-03-31T02:56:23.160Z,982.05
2018-03-31T02:57:23.146Z,982.04
2018-03-31T02:58:23.140Z,982.04
2018-03-31T02:59:23.149Z,982.00
2018-03-31T03:00:23.109Z,982.03
2018-03-31T03:01:23.088Z,982.02
2018-03-31T03:02:23.076Z,982.00
2018-03-31T03:03:23.065Z,981.96
2018-03-31T03:04:23.060Z,981.99
2018-03-31T03:05:23.033Z,981.98
2018-03-31T03:06:23.020Z,981.98
2018-03-31T03:07:23.004Z,981.99
2018-03-31T03:08:22.991Z,981.97
2018-03-31T03:09:22.978Z,982.01
2018-03-31T03:10:22.964Z,982.03
2018-03-31T03:11:22.972Z,982.06
2018-03-31T03:12:22.937Z,982.09
2018-03-31T03:13:22.941Z,982.13
2018-03-31T03:14:22.909Z,982.09
2018-03-31T03:15:22.894Z,982.13
2018-03-31T03:16:22.880Z,982.13
2018-03-31T03:17:22.887Z,982.12
2018-03-31T03:18:22.853Z,982.17
2018-03-31T03:19:22.855Z,982.13
2018-03-31T03:20:22.824Z,982.15
2018-03-31T03:21:22.811Z,982.16
2018-03-31T03:22:22.799Z,982.19
2018-03-31T03:23:22.782Z,982.20
2018-03-31T03:24:22.768Z,982.23
2018-03-31T03:25:22.755Z,982.22
2018-03-31T03:26:22.741Z,982.22
2018-03-31T03:27:22.726Z,982.22
2018-03-31T03:28:22.712Z,982.22
2018-03-31T03:29:22.715Z,982.23
2018-03-31T03:30:22.711Z,982.21
2018-03-31T03:31:22.690Z,982.21
2018-03-31T03:32:22.657Z,982.23
2018-03-31T03:33:22.677Z,982.26
2018-03-31T03:34:22.626Z,982.26
2018-03-31T03:35:22.611Z,982.30
2018-03-31T03:36:22.603Z,982.26
2018-03-31T03:37:22.604Z,982.29
2018-03-31T03:38:22.569Z,982.26
2018-03-31T03:39:22.591Z,982.28
2018-03-31T03:40:22.540Z,982.27
2018-03-31T03:41:22.526Z,982.33
2018-03-31T03:42:22.528Z,982.29
2018-03-31T03:43:22.497Z,982.33
2018-03-31T03:44:22.483Z,982.33
2018-03-31T03:45:22.468Z,982.33
2018-03-31T03:46:22.454Z,982.32
2018-03-31T03:47:22.439Z,982.29
2018-03-31T03:48:22.425Z,982.30
2018-03-31T03:49:22.428Z,982.29
2018-03-31T03:50:22.396Z,982.33
2018-03-31T03:51:22.403Z,982.32
2018-03-31T03:52:22.368Z,982.32
2018-03-31T03:53:22.352Z,982.34
2018-03-31T03:54:22.338Z,982.33
2018-03-31T03:55:22.323Z,982.29
2018-03-31T03:56:22.311Z,982.31
2018-03-31T03:57:22.317Z,982.29
2018-03-31T03:58:22.280Z,982.28
2018-03-31T03:59:22.264Z,982.29
2018-03-31T04:00:22.250Z,982.30
2018-03-31T04:01:22.235Z,982.29
2018-03-31T04:02:22.221Z,982.33
2018-03-31T04:03:22.207Z,982.32
2018-03-31T04:04:22.191Z,982.34
2018-03-31T04:05:22.178Z,982.35
2018-03-31T04:06:22.162Z,982.36
2018-03-31T04:07:22.147Z,982.39
2018-03-31T04:08:22.132Z,982.34
2018-03-31T04:09:22.137Z,982.36
2018-03-31T04:10:22.156Z,982.36
2018-03-31T04:11:22.102Z,982.38
2018-03-31T04:12:22.074Z,982.37
2018-03-31T04:13:22.089Z,982.38
2018-03-31T04:14:22.044Z,982.35
2018-03-31T04:15:22.034Z,982.36
2018-03-31T04:16:22.072Z,982.38
2018-03-31T04:17:22.018Z,982.37
2018-03-31T04:18:21.985Z,982.38
2018-03-31T04:19:22.004Z,982.38
2018-03-31T04:20:21.955Z,982.41
2018-03-31T04:21:21.940Z,982.41
2018-03-31T04:22:21.930Z,982.38
2018-03-31T04:23:21.911Z,982.40
2018-03-31T04:24:21.916Z,982.39
2018-03-31T04:25:21.881Z,982.40
2018-03-31T04:26:21.867Z,982.41
2018-03-31T04:27:21.851Z,982.39
2018-03-31T04:28:21.842Z,982.39
2018-03-31T04:29:21.845Z,982.37
2018-03-31T04:30:21.811Z,982.36
2018-03-31T04:31:21.819Z,982.36
2018-03-31T04:32:21.777Z,982.37
2018-03-31T04:33:21.762Z,982.35
2018-03-31T04:34:21.748Z,982.36
2018-03-31T04:35:21.732Z,982.35
2018-03-31T04:36:21.726Z,982.36
2018-03-31T04:37:21.790Z,982.34
2018-03-31T04:38:21.697Z,982.36
2018-03-31T04:39:21.673Z,982.35
2018-03-31T04:40:21.671Z,982.39
2018-03-31T04:41:21.644Z,982.34
2018-03-31T04:42:21.629Z,982.29
2018-03-31T04:43:21.613Z,982.30
2018-03-31T04:44:21.598Z,982.31
2018-03-31T04:45:21.584Z,982.29
2018-03-31T04:46:21.569Z,982.27
2018-03-31T04:47:21.553Z,982.31
2018-03-31T04:48:21.541Z,982.28
2018-03-31T04:49:21.553Z,982.30
2018-03-31T04:50:21.510Z,982.29
2018-03-31T04:51:21.494Z,982.30
2018-03-31T04:52:21.495Z,982.30
2018-03-31T04:53:21.465Z,982.30
2018-03-31T04:54:21.451Z,982.31
2018-03-31T04:55:21.449Z,982.34
2018-03-31T04:56:21.454Z,982.34
2018-03-31T04:57:21.410Z,982.37
2018-03-31T04:58:21.438Z,982.39
2018-03-31T04:59:21.380Z,982.41
2018-03-31T05:00:21.362Z,982.41
2018-03-31T05:01:21.360Z,982.42
2018-03-31T05:02:21.332Z,982.45
2018-03-31T05:03:21.317Z,982.45
2018-03-31T05:04:21.301Z,982.48
2018-03-31T05:05:21.287Z,982.46
2018-03-31T05:06:21.272Z,982.46
2018-03-31T05:07:21.257Z,982.50
2018-03-31T05:08:21.242Z,982.46
2018-03-31T05:09:21.234Z,982.50
2018-03-31T05:10:21.218Z,982.49
2018-03-31T05:11:21.400Z,982.52
2018-03-31T05:12:21.183Z,982.49
2018-03-31T05:13:21.226Z,982.50
2018-03-31T05:14:21.152Z,982.51
2018-03-31T05:15:21.196Z,982.50
2018-03-31T05:16:21.122Z,982.52
2018-03-31T05:17:21.107Z,982.52
2018-03-31T05:18:21.093Z,982.51
2018-03-31T05:19:21.077Z,982.51
2018-03-31T05:20:21.067Z,982.50
2018-03-31T05:21:21.049Z,982.50
2018-03-31T05:22:21.034Z,982.50
2018-03-31T05:23:21.018Z,982.48
2018-03-31T05:24:21.004Z,982.43
2018-03-31T05:25:20.988Z,982.48
2018-03-31T05:26:20.998Z,982.47
2018-03-31T05:27:21.218Z,982.50
2018-03-31T05:28:20.946Z,982.47
2018-03-31T05:29:20.929Z,982.48
2018-03-31T05:30:21.019Z,982.51
2018-03-31T05:31:20.901Z,982.51
2018-03-31T05:32:20.889Z,982.54
2018-03-31T05:33:20.954Z,982.52
2018-03-31T05:34:20.860Z,982.53
2018-03-31T05:35:20.840Z,982.61
2018-03-31T05:36:20.858Z,982.57
2018-03-31T05:37:20.811Z,982.62
2018-03-31T05:38:20.799Z,982.58
2018-03-31T05:39:20.780Z,982.60
2018-03-31T05:40:20.765Z,982.59
2018-03-31T05:41:20.757Z,982.57
2018-03-31T05:42:20.737Z,982.59
2018-03-31T05:43:20.722Z,982.56
2018-03-31T05:44:20.707Z,982.58
2018-03-31T05:45:20.692Z,982.55
2018-03-31T05:46:20.677Z,982.55
2018-03-31T05:47:20.662Z,982.51
2018-03-31T05:48:20.649Z,982.56
2018-03-31T05:49:20.636Z,982.55
2018-03-31T05:50:20.710Z,982.58
2018-03-31T05:51:20.603Z,982.56
2018-03-31T05:52:20.588Z,982.58
2018-03-31T05:53:20.623Z,982.56
2018-03-31T05:54:20.560Z,982.58
2018-03-31T05:55:20.546Z,982.57
2018-03-31T05:56:20.531Z,982.55
2018-03-31T05:57:20.515Z,982.55
2018-03-31T05:58:20.502Z,982.57
2018-03-31T05:59:20.484Z,982.53
2018-03-31T06:00:20.476Z,982.55
2018-03-31T06:01:20.463Z,982.55
2018-03-31T06:02:20.441Z,982.55
2018-03-31T06:03:20.428Z,982.56
2018-03-31T06:04:20.412Z,982.54
2018-03-31T06:05:20.406Z,982.53
2018-03-31T06:06:20.382Z,982.50
2018-03-31T06:07:20.366Z,982.49
2018-03-31T06:08:20.352Z,982.47
2018-03-31T06:09:20.337Z,982.45
2018-03-31T06:10:20.323Z,982.45
2018-03-31T06:11:20.307Z,982.45
2018-03-31T06:12:20.293Z,982.48
2018-03-31T06:13:20.278Z,982.44
2018-03-31T06:14:20.369Z,982.45
2018-03-31T06:15:20.248Z,982.47
2018-03-31T06:16:20.234Z,982.50
2018-03-31T06:17:20.290Z,982.50
2018-03-31T06:18:20.209Z,982.47
2018-03-31T06:19:20.189Z,982.48
2018-03-31T06:20:20.223Z,982.48
2018-03-31T06:21:20.161Z,982.49
2018-03-31T06:22:20.147Z,982.51
2018-03-31T06:23:20.182Z,982.53
2018-03-31T06:24:20.122Z,982.52
2018-03-31T06:25:20.103Z,982.50
2018-03-31T06:26:20.104Z,982.52
2018-03-31T06:27:20.074Z,982.55
2018-03-31T06:28:20.061Z,982.55
2018-03-31T06:29:20.044Z,982.56
2018-03-31T06:30:20.033Z,982.59
2018-03-31T06:31:20.016Z,982.56
2018-03-31T06:32:20.002Z,982.59
2018-03-31T06:33:19.988Z,982.58
2018-03-31T06:34:20.208Z,982.57
2018-03-31T06:35:19.959Z,982.57
2018-03-31T06:36:19.945Z,982.56
2018-03-31T06:37:20.052Z,982.56
2018-03-31T06:38:19.917Z,982.58
2018-03-31T06:39:19.902Z,982.57
2018-03-31T06:40:20.094Z,982.54
2018-03-31T06:41:19.908Z,982.57
2018-03-31T06:42:19.861Z,982.57
2018-03-31T06:43:19.896Z,982.62
2018-03-31T06:44:19.833Z,982.61
2018-03-31T06:45:19.819Z,982.62
2018-03-31T06:46:19.808Z,982.62
2018-03-31T06:47:19.795Z,982.60
2018-03-31T06:48:19.781Z,982.62
2018-03-31T06:49:19.765Z,982.63
2018-03-31T06:50:19.750Z,982.68
2018-03-31T06:51:19.735Z,982.68
2018-03-31T06:52:19.722Z,982.71
2018-03-31T06:53:19.708Z,982.65
2018-03-31T06:54:19.898Z,982.67
2018-03-31T06:55:19.681Z,982.66
2018-03-31T06:56:19.670Z,982.65
2018-03-31T06:57:19.857Z,982.66
2018-03-31T06:58:19.699Z,982.65
2018-03-31T06:59:19.627Z,982.64
2018-03-31T07:00:19.695Z,982.65
2018-03-31T07:01:19.599Z,982.65
2018-03-31T07:02:19.587Z,982.65
2018-03-31T07:03:19.593Z,982.65
2018-03-31T07:04:19.562Z,982.69
2018-03-31T07:05:19.753Z,982.68
2018-03-31T07:06:19.533Z,982.71
2018-03-31T07:07:19.519Z,982.70
2018-03-31T07:08:19.592Z,982.68
2018-03-31T07:09:19.496Z,982.72
2018-03-31T07:10:19.480Z,982.72
2018-03-31T07:11:19.547Z,982.71
2018-03-31T07:12:19.454Z,982.74
2018-03-31T07:13:19.443Z,982.73
2018-03-31T07:14:19.432Z,982.74
2018-03-31T07:15:19.425Z,982.73
2018-03-31T07:16:19.405Z,982.76
2018-03-31T07:17:19.391Z,982.68
2018-03-31T07:18:19.378Z,982.70
2018-03-31T07:19:19.366Z,982.72
2018-03-31T07:20:19.362Z,982.70
2018-03-31T07:21:19.342Z,982.72
2018-03-31T07:22:19.463Z,982.77
2018-03-31T07:23:19.317Z,982.78
2018-03-31T07:24:19.305Z,982.76
2018-03-31T07:26:19.281Z,982.72
2018-03-31T07:27:19.270Z,982.74
2018-03-31T07:28:19.303Z,982.76
2018-03-31T07:29:19.246Z,982.80
2018-03-31T07:30:19.243Z,982.81
2018-03-31T07:31:19.242Z,982.83
2018-03-31T07:32:19.213Z,982.84
2018-03-31T07:33:19.203Z,982.81
2018-03-31T07:34:19.193Z,982.79
2018-03-31T07:35:19.183Z,982.86
2018-03-31T07:36:19.197Z,982.90
2018-03-31T07:37:19.166Z,982.91
2018-03-31T07:38:19.162Z,982.93
2018-03-31T07:39:19.226Z,982.94
2018-03-31T07:40:19.145Z,982.98
2018-03-31T07:41:19.143Z,983.01
2018-03-31T07:42:19.147Z,982.99
2018-03-31T07:43:19.119Z,983.05
2018-03-31T07:44:19.115Z,983.07
2018-03-31T07:45:19.108Z,983.07
2018-03-31T07:46:19.106Z,983.11
2018-03-31T07:47:19.097Z,983.09
2018-03-31T07:48:19.092Z,983.12
2018-03-31T07:49:19.088Z,983.20
2018-03-31T07:51:19.081Z,983.15
2018-03-31T07:52:19.083Z,983.12
2018-03-31T07:53:19.120Z,983.13
2018-03-31T07:54:19.078Z,983.17
2018-03-31T07:55:19.072Z,983.14
2018-03-31T07:56:19.071Z,983.20
2018-03-31T07:57:19.070Z,983.19
2018-03-31T07:58:19.069Z,983.20
2018-03-31T07:59:19.068Z,983.21
2018-03-31T08:00:19.067Z,983.25
2018-03-31T08:01:19.116Z,983.31
2018-03-31T08:02:19.067Z,983.31
2018-03-31T08:03:19.068Z,983.27
2018-03-31T08:04:19.069Z,983.26
2018-03-31T08:05:19.122Z,983.29
2018-03-31T08:06:19.068Z,983.29
2018-03-31T08:07:19.068Z,983.35
2018-03-31T08:08:19.069Z,983.34
2018-03-31T08:09:19.069Z,983.30
2018-03-31T08:10:19.070Z,983.30
2018-03-31T08:11:19.071Z,983.32
2018-03-31T08:12:19.071Z,983.34
2018-03-31T08:13:19.160Z,983.28
2018-03-31T08:14:19.073Z,983.27
2018-03-31T08:15:19.073Z,983.30
2018-03-31T08:16:19.127Z,983.28
2018-03-31T08:17:19.122Z,983.30
2018-03-31T08:18:19.076Z,983.29
2018-03-31T08:19:19.077Z,983.33
2018-03-31T08:20:19.080Z,983.35
2018-03-31T08:21:19.079Z,983.33
2018-03-31T08:22:19.082Z,983.40
2018-03-31T08:23:19.081Z,983.32
2018-03-31T08:24:19.147Z,983.37
2018-03-31T08:25:19.086Z,983.36
2018-03-31T08:26:19.088Z,983.35
2018-03-31T08:27:19.088Z,983.37
2018-03-31T08:28:19.092Z,983.42
2018-03-31T08:29:19.094Z,983.41
2018-03-31T08:30:19.104Z,983.38
2018-03-31T08:31:19.096Z,983.35
2018-03-31T08:32:19.098Z,983.37
2018-03-31T08:33:19.100Z,983.37
2018-03-31T08:34:19.104Z,983.35
2018-03-31T08:35:19.158Z,983.36
2018-03-31T08:36:19.107Z,983.39
2018-03-31T08:37:19.110Z,983.33
2018-03-31T08:38:19.111Z,983.39
2018-03-31T08:39:19.112Z,983.40
2018-03-31T08:40:19.117Z,983.39
2018-03-31T08:41:19.124Z,983.44
2018-03-31T08:42:19.120Z,983.44
2018-03-31T08:43:19.193Z,983.41
2018-03-31T08:44:19.125Z,983.41
2018-03-31T08:45:19.127Z,983.45
2018-03-31T08:46:19.154Z,983.42
2018-03-31T08:47:19.136Z,983.38
2018-03-31T08:48:19.137Z,983.40
2018-03-31T08:49:19.141Z,983.43
2018-03-31T08:50:19.143Z,983.43
2018-03-31T08:51:19.221Z,983.44
2018-03-31T08:52:19.149Z,983.34
2018-03-31T08:53:19.153Z,983.40
2018-03-31T08:54:19.212Z,983.40
2018-03-31T08:55:19.160Z,983.39
2018-03-31T08:56:19.165Z,983.44
2018-03-31T08:57:19.170Z,983.40
2018-03-31T08:58:19.174Z,983.42
2018-03-31T08:59:19.179Z,983.45
2018-03-31T09:00:19.184Z,983.42
2018-03-31T09:01:19.190Z,983.45
2018-03-31T09:02:19.397Z,983.44
2018-03-31T09:03:19.197Z,983.43
2018-03-31T09:04:19.277Z,983.46
2018-03-31T09:05:19.207Z,983.45
2018-03-31T09:06:19.211Z,983.42
2018-03-31T09:07:19.213Z,983.43
2018-03-31T09:08:19.218Z,983.41
2018-03-31T09:09:19.276Z,983.46
2018-03-31T09:10:19.225Z,983.47
2018-03-31T09:11:19.230Z,983.51
2018-03-31T09:12:19.434Z,983.54
2018-03-31T09:13:19.236Z,983.55
2018-03-31T09:14:19.237Z,983.55
2018-03-31T09:15:19.282Z,983.51
2018-03-31T09:16:19.244Z,983.48
2018-03-31T09:17:19.242Z,983.51
2018-03-31T09:18:19.244Z,983.57
2018-03-31T09:19:19.247Z,983.54
2018-03-31T09:20:19.252Z,983.48
2018-03-31T09:21:19.263Z,983.52
2018-03-31T09:22:19.253Z,983.51
2018-03-31T09:24:19.260Z,983.48
2018-03-31T09:25:19.265Z,983.50
2018-03-31T09:26:19.266Z,983.50
2018-03-31T09:27:19.265Z,983.52
2018-03-31T09:28:19.269Z,983.49
2018-03-31T09:29:19.272Z,983.51
2018-03-31T09:30:19.277Z,983.49
2018-03-31T09:31:19.377Z,983.53
2018-03-31T09:32:19.284Z,983.54
2018-03-31T09:33:19.290Z,983.57
2018-03-31T09:34:19.308Z,983.59
2018-03-31T09:35:19.300Z,983.56
2018-03-31T09:36:19.311Z,983.64
2018-03-31T09:37:19.312Z,983.54
2018-03-31T09:38:19.317Z,983.59
2018-03-31T09:39:19.330Z,983.61
2018-03-31T09:40:19.333Z,983.64
2018-03-31T09:41:19.333Z,983.61
2018-03-31T09:42:19.370Z,983.57
2018-03-31T09:43:19.352Z,983.60
2018-03-31T09:44:19.348Z,983.58
2018-03-31T09:45:19.351Z,983.59
2018-03-31T09:46:19.359Z,983.59
2018-03-31T09:47:19.357Z,983.59
2018-03-31T09:48:19.361Z,983.60
2018-03-31T09:49:19.360Z,983.60
2018-03-31T09:50:19.417Z,983.63
2018-03-31T09:51:19.360Z,983.62
2018-03-31T09:52:19.362Z,983.62
2018-03-31T09:53:19.360Z,983.64
2018-03-31T09:54:19.359Z,983.56
2018-03-31T09:55:19.357Z,983.57
2018-03-31T09:56:19.357Z,983.63
2018-03-31T09:57:19.357Z,983.66
2018-03-31T09:58:19.374Z,983.68
2018-03-31T09:59:19.350Z,983.68
2018-03-31T10:00:19.364Z,983.68
2018-03-31T10:01:19.396Z,983.70
2018-03-31T10:02:19.341Z,983.65
2018-03-31T10:03:19.342Z,983.65
2018-03-31T10:04:19.334Z,983.66
2018-03-31T10:05:19.549Z,983.66
2018-03-31T10:06:19.332Z,983.63
2018-03-31T10:07:19.324Z,983.68
2018-03-31T10:08:19.420Z,983.62
2018-03-31T10:09:19.317Z,983.65
2018-03-31T10:10:19.315Z,983.67
2018-03-31T10:11:19.332Z,983.65
2018-03-31T10:12:19.305Z,983.68
2018-03-31T10:13:19.302Z,983.67
2018-03-31T10:14:19.301Z,983.68
2018-03-31T10:15:19.294Z,983.65
2018-03-31T10:16:19.295Z,983.67
2018-03-31T10:17:19.291Z,983.68
2018-03-31T10:18:19.284Z,983.67
2018-03-31T10:19:19.484Z,983.73
2018-03-31T10:20:19.279Z,983.74
2018-03-31T10:21:19.276Z,983.74
2018-03-31T10:22:19.316Z,983.73
2018-03-31T10:23:19.270Z,983.72
2018-03-31T10:24:19.272Z,983.74
2018-03-31T10:25:19.268Z,983.75
2018-03-31T10:26:19.263Z,983.76
2018-03-31T10:27:19.260Z,983.77
2018-03-31T10:28:19.258Z,983.76
2018-03-31T10:29:19.284Z,983.73
2018-03-31T10:30:19.457Z,983.75
2018-03-31T10:31:19.253Z,983.75
2018-03-31T10:32:19.252Z,983.77
2018-03-31T10:33:19.252Z,983.73
2018-03-31T10:34:19.266Z,983.73
2018-03-31T10:35:19.270Z,983.74
2018-03-31T10:36:19.243Z,983.78
2018-03-31T10:37:19.244Z,983.76
2018-03-31T10:38:19.243Z,983.76
2018-03-31T10:39:19.238Z,983.75
2018-03-31T10:40:19.241Z,983.78
2018-03-31T10:41:19.279Z,983.79
2018-03-31T10:42:19.233Z,983.77
2018-03-31T10:43:19.230Z,983.78
2018-03-31T10:44:19.251Z,983.79
2018-03-31T10:45:19.227Z,983.78
2018-03-31T10:46:19.221Z,983.74
2018-03-31T10:47:19.221Z,983.76
2018-03-31T10:48:19.214Z,983.74
2018-03-31T10:49:19.210Z,983.78
2018-03-31T10:50:19.208Z,983.78
2018-03-31T10:51:19.203Z,983.78
2018-03-31T10:52:19.404Z,983.81
2018-03-31T10:53:19.199Z,983.75
2018-03-31T10:54:19.200Z,983.78
2018-03-31T10:55:19.245Z,983.76
2018-03-31T10:56:19.194Z,983.75
2018-03-31T10:57:19.193Z,983.75
2018-03-31T10:58:19.194Z,983.74
2018-03-31T10:59:19.189Z,983.76
2018-03-31T11:00:19.201Z,983.73
2018-03-31T11:01:19.186Z,983.71
2018-03-31T11:02:19.186Z,983.71
2018-03-31T11:03:19.386Z,983.72
2018-03-31T11:04:19.228Z,983.82
2018-03-31T11:05:19.180Z,983.82
2018-03-31T11:06:19.178Z,983.81
2018-03-31T11:07:19.175Z,983.85
2018-03-31T11:08:19.176Z,983.78
2018-03-31T11:10:19.170Z,983.84
2018-03-31T11:11:19.168Z,983.78
2018-03-31T11:12:19.369Z,983.88
2018-03-31T11:13:19.165Z,983.81
2018-03-31T11:14:19.164Z,983.80
2018-03-31T11:15:19.172Z,983.79
2018-03-31T11:16:19.168Z,983.81
2018-03-31T11:17:19.162Z,983.82
2018-03-31T11:18:19.164Z,983.83
2018-03-31T11:19:19.160Z,983.80
2018-03-31T11:21:19.158Z,983.84
2018-03-31T11:22:19.157Z,983.81
2018-03-31T11:23:19.187Z,983.80
2018-03-31T11:24:19.152Z,983.84
2018-03-31T11:25:19.153Z,983.80
2018-03-31T11:26:19.168Z,983.82
2018-03-31T11:27:19.145Z,983.83
2018-03-31T11:28:19.159Z,983.80
2018-03-31T11:29:19.140Z,983.77
2018-03-31T11:30:19.137Z,983.77
2018-03-31T11:31:19.147Z,983.80
2018-03-31T11:32:19.134Z,983.78
2018-03-31T11:33:19.125Z,983.79
2018-03-31T11:34:19.326Z,983.82
2018-03-31T11:35:19.117Z,983.75
2018-03-31T11:36:19.116Z,983.79
2018-03-31T11:37:19.107Z,983.75
2018-03-31T11:38:19.105Z,983.82
2018-03-31T11:39:19.096Z,983.82
2018-03-31T11:40:19.091Z,983.80
2018-03-31T11:41:19.086Z,983.78
2018-03-31T11:42:19.173Z,983.80
2018-03-31T11:43:19.076Z,983.82
2018-03-31T11:44:19.069Z,983.80
2018-03-31T11:45:19.122Z,983.83
2018-03-31T11:46:19.059Z,983.81
2018-03-31T11:47:19.052Z,983.85
2018-03-31T11:48:19.046Z,983.83
2018-03-31T11:49:19.040Z,983.85
2018-03-31T11:50:19.034Z,983.83
2018-03-31T11:51:19.028Z,983.84
2018-03-31T11:52:19.024Z,983.81
2018-03-31T11:53:19.016Z,983.86
2018-03-31T11:54:19.010Z,983.84
2018-03-31T11:55:19.003Z,983.81
2018-03-31T11:56:19.213Z,983.83
2018-03-31T11:57:18.991Z,983.81
2018-03-31T11:58:18.988Z,983.82
2018-03-31T11:59:19.005Z,983.78
2018-03-31T12:00:18.972Z,983.87
2018-03-31T12:01:18.966Z,983.84
2018-03-31T12:02:18.968Z,983.85
2018-03-31T12:03:18.960Z,983.85
2018-03-31T12:04:18.951Z,983.89
2018-03-31T12:05:18.943Z,983.90
2018-03-31T12:06:18.934Z,983.84
2018-03-31T12:07:18.929Z,983.86
2018-03-31T12:08:18.920Z,983.90
2018-03-31T12:09:18.915Z,983.91
2018-03-31T12:10:18.906Z,983.93
2018-03-31T12:11:18.898Z,983.92
2018-03-31T12:12:18.893Z,983.88
2018-03-31T12:13:18.946Z,983.88
2018-03-31T12:14:18.878Z,983.87
2018-03-31T12:15:18.870Z,983.89
2018-03-31T12:16:18.881Z,983.88
2018-03-31T12:17:18.857Z,983.87
2018-03-31T12:18:18.856Z,983.92
2018-03-31T12:19:18.844Z,983.91
2018-03-31T12:20:18.835Z,983.92
2018-03-31T12:21:18.827Z,983.87
2018-03-31T12:22:18.821Z,983.87
2018-03-31T12:23:18.812Z,983.88
2018-03-31T12:24:18.805Z,983.87
2018-03-31T12:25:18.798Z,983.86
2018-03-31T12:26:18.791Z,983.91
2018-03-31T12:27:18.986Z,983.88
2018-03-31T12:28:18.784Z,983.89
2018-03-31T12:29:18.772Z,983.89
2018-03-31T12:30:18.965Z,983.83
2018-03-31T12:31:18.754Z,983.85
2018-03-31T12:32:18.746Z,983.87
2018-03-31T12:33:18.741Z,983.86
2018-03-31T12:34:18.732Z,983.87